Time;durP1;ratioP1;P1;durP2;ratioP2;P2;SDS_P1;SDS_P2;PMS_P1;PMS_P2;Temp;Humidity;BMP_temperature;BMP_pressure;BME280_temperature;BME280_humidity;BME280_pressure;Samples;Min_cycle;Max_cycle;Signal;HPM_P1;HPM_P2
2022/04/14 00:01:52;;;;;;;37.55;28.35;;;;;;;10.37;95.68;101974.31;5032596;28;20037;-79
2022/04/14 00:04:17;;;;;;;41.22;29.27;;;;;;;10.36;95.78;101973.44;5037641;28;20032;-79
2022/04/14 00:06:43;;;;;;;38.22;29.35;;;;;;;10.38;96.81;101962.84;5035573;28;20465;-79
2022/04/14 00:09:08;;;;;;;36.58;27.50;;;;;;;10.40;96.89;101958.41;5011751;28;20159;-79
2022/04/14 00:11:34;;;;;;;36.00;29.23;;;;;;;10.40;97.21;101961.94;5014676;28;20037;-79
2022/04/14 00:14:00;;;;;;;36.92;28.20;;;;;;;10.39;96.81;101956.66;5039250;28;20503;-79
2022/04/14 00:16:25;;;;;;;38.35;27.38;;;;;;;10.37;96.65;101959.31;5030570;28;20033;-79
2022/04/14 00:18:50;;;;;;;34.33;27.05;;;;;;;10.37;96.96;101951.38;5030242;28;20414;-79
2022/04/14 00:21:16;;;;;;;30.33;26.08;;;;;;;10.37;97.52;101951.38;5027733;28;20091;-79
2022/04/14 00:23:41;;;;;;;31.52;25.90;;;;;;;10.38;97.23;101949.59;5017396;28;20072;-79
2022/04/14 00:26:07;;;;;;;30.80;25.55;;;;;;;10.38;97.11;101946.94;5028370;28;20056;-79
2022/04/14 00:28:32;;;;;;;30.48;25.05;;;;;;;10.41;97.45;101947.81;5029516;28;20037;-79
2022/04/14 00:31:02;;;;;;;37.38;27.35;;;;;;;10.42;98.25;101946.94;5029660;28;20033;-79
2022/04/14 00:33:27;;;;;;;34.42;26.38;;;;;;;10.40;97.88;101943.41;5031885;28;20041;-79
2022/04/14 00:35:53;;;;;;;28.88;24.30;;;;;;;10.42;97.38;101938.97;5031866;28;20037;-79
2022/04/14 00:38:18;;;;;;;28.02;24.23;;;;;;;10.39;96.64;101946.94;5030562;28;20120;-79
2022/04/14 00:40:44;;;;;;;34.58;24.95;;;;;;;10.38;97.24;101947.81;5018124;28;20029;-79
2022/04/14 00:43:09;;;;;;;32.92;24.92;;;;;;;10.38;97.39;101949.59;5043567;28;20040;-79
2022/04/14 00:45:35;;;;;;;34.15;24.52;;;;;;;10.34;96.54;101940.78;5032627;28;20041;-79
2022/04/14 00:48:01;;;;;;;27.10;23.45;;;;;;;10.29;95.98;101938.16;5043306;28;20094;-79
2022/04/14 00:50:26;;;;;;;30.67;24.85;;;;;;;10.29;96.23;101940.81;5036731;28;20063;-79
2022/04/14 00:52:53;;;;;;;35.67;25.52;;;;;;;10.28;96.82;101948.72;5018463;28;20045;-79
2022/04/14 00:55:19;;;;;;;32.42;24.35;;;;;;;10.26;96.95;101945.16;5031602;28;20501;-79
2022/04/14 00:57:45;;;;;;;31.52;25.05;;;;;;;10.23;96.52;101940.75;5032559;28;20072;-79
2022/04/14 01:00:11;;;;;;;30.83;24.55;;;;;;;10.21;96.83;101945.22;5031372;28;20338;-79
2022/04/14 01:02:36;;;;;;;34.15;25.15;;;;;;;10.20;97.40;101942.56;5031215;28;20048;-79
2022/04/14 01:05:04;;;;;;;30.27;24.13;;;;;;;10.16;96.11;101944.31;5043008;28;20045;-79
2022/04/14 01:07:30;;;;;;;29.38;24.60;;;;;;;10.16;96.86;101946.09;5052511;28;20067;-79
2022/04/14 01:09:56;;;;;;;29.63;24.42;;;;;;;10.16;96.84;101938.16;5018423;28;20026;-79
2022/04/14 01:12:23;;;;;;;31.38;23.30;;;;;;;10.12;96.13;101938.16;5032369;28;20371;-79
2022/04/14 01:14:49;;;;;;;29.77;23.67;;;;;;;10.10;96.38;101934.63;5032461;28;20118;-79
2022/04/14 01:17:14;;;;;;;30.88;24.75;;;;;;;10.08;96.57;101936.41;5014738;28;20084;-79
2022/04/14 01:19:40;;;;;;;34.15;25.75;;;;;;;10.11;97.42;101935.50;5031318;28;20087;-79
2022/04/14 01:22:21;;;;;;;28.58;23.65;;;;;;;10.10;97.04;101939.91;5017284;28;20042;-79
2022/04/14 01:24:47;;;;;;;32.75;24.77;;;;;;;10.08;96.77;101936.41;5032508;28;20041;-79
2022/04/14 01:27:13;;;;;;;30.23;24.35;;;;;;;10.06;96.61;101940.84;5030963;28;20033;-79
2022/04/14 01:29:38;;;;;;;32.45;24.70;;;;;;;10.05;96.78;101933.75;5035442;28;20044;-79
2022/04/14 01:32:05;;;;;;;33.90;26.17;;;;;;;10.03;97.53;101932.00;5035301;28;20115;-79
2022/04/14 01:34:30;;;;;;;28.52;22.05;;;;;;;10.01;96.60;101944.34;5014610;28;20465;-79
2022/04/14 01:36:57;;;;;;;34.50;26.02;;;;;;;10.01;97.97;101942.59;5032273;28;20128;-79
2022/04/14 01:39:23;;;;;;;33.58;27.00;;;;;;;9.99;98.51;101943.47;5030976;28;20041;-79
2022/04/14 01:41:49;;;;;;;33.15;25.25;;;;;;;9.95;97.54;101944.38;5030780;28;20063;-79
2022/04/14 01:44:14;;;;;;;32.53;25.55;;;;;;;9.93;97.76;101944.38;5032137;28;20450;-79
2022/04/14 01:46:41;;;;;;;36.10;26.92;;;;;;;9.93;97.71;101947.00;5033859;28;20045;-79
2022/04/14 01:49:08;;;;;;;33.22;26.27;;;;;;;9.89;97.46;101938.22;5033065;28;20069;-79
2022/04/14 01:51:33;;;;;;;34.70;27.95;;;;;;;9.88;97.94;101933.78;5033195;28;20037;-79
2022/04/14 01:53:59;;;;;;;35.78;26.65;;;;;;;9.87;98.21;101933.81;5019840;28;20374;-79
2022/04/14 01:56:24;;;;;;;32.17;26.35;;;;;;;9.88;97.90;101939.09;5016828;28;20144;-79
2022/04/14 01:58:52;;;;;;;37.88;29.60;;;;;;;9.94;99.08;101947.88;5030164;28;20024;-79
2022/04/14 02:01:18;;;;;;;40.20;29.30;;;;;;;9.96;99.54;101951.41;5031761;28;20052;-78
2022/04/14 02:03:43;;;;;;;37.80;29.25;;;;;;;9.98;99.34;101957.59;5031256;28;20033;-79
2022/04/14 02:06:09;;;;;;;45.45;31.75;;;;;;;10.02;99.96;101948.78;5016016;28;20477;-79
2022/04/14 02:08:36;;;;;;;35.33;27.95;;;;;;;10.02;99.55;101946.13;5031432;28;20067;-79
2022/04/14 02:11:02;;;;;;;36.47;29.38;;;;;;;10.04;99.24;101949.63;5030180;28;20044;-79
2022/04/14 02:13:29;;;;;;;33.97;27.38;;;;;;;10.05;98.54;101956.72;5030089;28;20025;-79
2022/04/14 02:15:55;;;;;;;35.60;28.77;;;;;;;10.07;98.73;101957.59;5031733;28;20331;-79
2022/04/14 02:18:20;;;;;;;38.15;27.15;;;;;;;10.06;98.76;101951.44;5014268;28;20041;-79
2022/04/14 02:20:46;;;;;;;38.45;28.80;;;;;;;10.08;98.59;101959.34;5031520;28;20131;-79
2022/04/14 02:23:11;;;;;;;37.20;29.45;;;;;;;10.09;98.13;101954.06;5033915;28;20208;-79
2022/04/14 02:25:37;;;;;;;39.38;29.77;;;;;;;10.07;98.24;101955.81;5033706;28;20400;-79
2022/04/14 02:28:02;;;;;;;38.63;29.25;;;;;;;10.03;98.06;101955.81;5033730;28;20068;-79
2022/04/14 02:30:28;;;;;;;35.45;27.13;;;;;;;10.00;97.10;101958.47;5051616;28;20037;-79
2022/04/14 02:32:54;;;;;;;39.25;28.83;;;;;;;10.01;97.86;101960.22;5050096;28;20082;-79
2022/04/14 02:35:20;;;;;;;37.15;28.00;;;;;;;9.97;97.65;101962.00;5049914;28;20041;-79
2022/04/14 02:37:45;;;;;;;36.72;27.60;;;;;;;9.92;97.09;101962.91;5033342;28;20094;-79
2022/04/14 02:40:11;;;;;;;35.30;27.38;;;;;;;9.89;96.91;101963.75;5051398;28;20044;-79
2022/04/14 02:42:37;;;;;;;35.60;26.45;;;;;;;9.84;96.78;101966.44;5043331;28;20033;-79
2022/04/14 02:45:03;;;;;;;32.90;26.60;;;;;;;9.80;96.54;101966.44;5031397;28;20099;-79
2022/04/14 02:47:29;;;;;;;35.15;27.83;;;;;;;9.78;97.17;101960.25;5035529;28;20422;-79
2022/04/14 02:49:55;;;;;;;40.13;28.23;;;;;;;9.75;97.50;101969.09;5033688;28;20155;-79
2022/04/14 02:52:20;;;;;;;35.28;27.98;;;;;;;9.72;97.47;101963.81;5041485;28;20161;-79
2022/04/14 02:54:46;;;;;;;40.10;28.73;;;;;;;9.65;96.90;101962.91;5029484;28;20049;-79
2022/04/14 02:57:11;;;;;;;40.25;29.67;;;;;;;9.61;97.35;101958.50;5031240;28;20043;-79
2022/04/14 02:59:37;;;;;;;39.40;29.05;;;;;;;9.59;97.60;101967.31;5013391;28;20063;-79
2022/04/14 03:02:03;;;;;;;38.88;29.52;;;;;;;9.52;98.18;101963.81;5029950;28;20057;-79
2022/04/14 03:04:30;;;;;;;37.58;29.05;;;;;;;9.49;97.53;101961.13;5037163;28;20036;-79
2022/04/14 03:06:56;;;;;;;35.75;27.10;;;;;;;9.44;97.77;101957.59;5049847;28;20548;-79
2022/04/14 03:09:22;;;;;;;34.30;26.13;;;;;;;9.37;95.98;101962.03;5050955;28;20071;-79
2022/04/14 03:11:48;;;;;;;35.88;25.73;;;;;;;9.35;96.12;101962.91;5049898;28;20053;-79
2022/04/14 03:14:15;;;;;;;35.15;28.00;;;;;;;9.31;97.38;101959.38;5050885;28;20064;-79
2022/04/14 03:16:41;;;;;;;37.65;28.30;;;;;;;9.25;97.58;101962.91;5051001;28;20041;-79
2022/04/14 03:19:06;;;;;;;41.17;28.85;;;;;;;9.26;97.97;101963.75;5016527;28;20526;-79
2022/04/14 03:21:32;;;;;;;38.08;28.10;;;;;;;9.22;98.19;101960.25;5042174;28;20405;-79
2022/04/14 03:23:57;;;;;;;35.42;27.23;;;;;;;9.15;97.09;101954.94;5012825;28;20045;-79
2022/04/14 03:26:23;;;;;;;38.20;27.42;;;;;;;9.14;97.04;101955.81;5030849;28;20037;-79
2022/04/14 03:28:48;;;;;;;35.90;25.63;;;;;;;9.10;97.08;101968.16;5030634;28;20099;-79
2022/04/14 03:31:14;;;;;;;35.88;26.60;;;;;;;9.08;97.13;101961.97;5029467;28;20125;-79
2022/04/14 03:33:39;;;;;;;41.45;28.50;;;;;;;9.06;98.27;101966.38;5029236;28;20382;-79
2022/04/14 03:36:05;;;;;;;38.05;28.42;;;;;;;9.01;97.76;101963.72;5029811;28;20112;-79
2022/04/14 03:38:31;;;;;;;35.88;26.55;;;;;;;8.95;97.33;101957.53;5030586;28;20469;-79
2022/04/14 03:40:57;;;;;;;36.03;27.95;;;;;;;8.92;97.91;101961.03;5029447;28;20049;-79
2022/04/14 03:43:22;;;;;;;37.22;27.05;;;;;;;8.87;97.46;101962.78;5030248;28;20174;-79
2022/04/14 03:45:48;;;;;;;39.55;28.58;;;;;;;8.88;97.83;101966.31;5030768;28;20048;-79
2022/04/14 03:48:14;;;;;;;34.42;27.02;;;;;;;8.82;97.98;101970.69;5041257;28;20081;-79
2022/04/14 03:50:39;;;;;;;33.75;25.50;;;;;;;8.75;97.32;101960.09;5035720;28;20029;-79
2022/04/14 03:53:05;;;;;;;35.00;24.83;;;;;;;8.71;96.42;101955.72;5050016;28;20087;-79
2022/04/14 03:55:30;;;;;;;35.17;26.98;;;;;;;8.66;96.66;101968.00;5044692;28;20173;-79
2022/04/14 03:57:56;;;;;;;30.50;23.35;;;;;;;8.63;96.62;101968.88;5029899;28;20138;-79
2022/04/14 04:00:22;;;;;;;31.83;24.88;;;;;;;8.58;95.82;101965.31;5029965;28;20025;-79
2022/04/14 04:02:47;;;;;;;33.70;26.92;;;;;;;8.56;96.92;101967.97;5012393;28;20096;-79
2022/04/14 04:05:12;;;;;;;30.95;23.88;;;;;;;8.52;95.41;101965.31;5000845;28;20048;-79
2022/04/14 04:07:38;;;;;;;33.20;24.45;;;;;;;8.51;96.10;101964.44;5031346;28;20033;-79
2022/04/14 04:10:05;;;;;;;33.33;25.30;;;;;;;8.46;95.72;101962.66;5033565;28;20079;-79
2022/04/14 04:12:31;;;;;;;33.33;25.17;;;;;;;8.46;96.07;101974.09;5035079;28;20083;-79
2022/04/14 04:14:56;;;;;;;33.40;25.20;;;;;;;8.46;97.08;101984.63;5032144;28;20030;-79
2022/04/14 04:17:22;;;;;;;31.27;24.65;;;;;;;8.44;96.81;101977.59;5033505;28;20636;-79
2022/04/14 04:19:48;;;;;;;35.88;25.33;;;;;;;8.43;96.80;101981.97;5030994;28;20038;-79
2022/04/14 04:22:14;;;;;;;36.05;26.45;;;;;;;8.42;96.52;101972.28;5044779;28;20036;-79
2022/04/14 04:24:39;;;;;;;30.80;23.92;;;;;;;8.45;96.65;101982.84;5049382;28;20380;-79
2022/04/14 04:27:05;;;;;;;33.40;24.17;;;;;;;8.46;97.06;101981.13;5031804;28;20496;-79
2022/04/14 04:29:31;;;;;;;32.10;24.38;;;;;;;8.46;96.56;101981.13;5033382;28;20040;-79
2022/04/14 04:31:57;;;;;;;31.38;23.15;;;;;;;8.38;95.96;101978.38;5033233;28;20041;-79
2022/04/14 04:34:22;;;;;;;30.75;23.13;;;;;;;8.30;95.65;101978.34;5033345;28;20158;-79
2022/04/14 04:36:48;;;;;;;27.92;21.23;;;;;;;8.28;95.63;101987.13;5035512;28;20381;-79
2022/04/14 04:39:14;;;;;;;48.55;23.33;;;;;;;8.22;95.75;101995.91;5026401;28;20032;-79
2022/04/14 04:41:39;;;;;;;53.08;22.95;;;;;;;8.17;96.00;101995.00;5052866;28;20041;-79
2022/04/14 04:44:05;;;;;;;37.58;21.35;;;;;;;8.14;95.93;101997.63;5051412;28;20040;-79
2022/04/14 04:46:31;;;;;;;35.60;22.20;;;;;;;8.11;95.78;101993.19;5042067;28;20041;-79
2022/04/14 04:48:58;;;;;;;38.42;23.30;;;;;;;8.09;96.79;101994.06;5032539;28;20517;-79
2022/04/14 04:51:26;;;;;;;30.52;21.67;;;;;;;8.08;96.57;101998.44;5033029;28;20102;-79
2022/04/14 04:53:53;;;;;;;39.20;22.75;;;;;;;8.03;96.59;101999.28;5034380;28;20128;-79
2022/04/14 04:56:18;;;;;;;37.28;22.55;;;;;;;8.05;97.37;102006.34;5035001;28;20374;-79
2022/04/14 04:58:45;;;;;;;54.35;22.45;;;;;;;8.02;96.92;102003.69;5052740;28;20036;-79
2022/04/14 05:01:10;;;;;;;55.92;20.85;;;;;;;8.03;97.00;102008.06;5051500;28;20071;-79
2022/04/14 05:03:36;;;;;;;138.57;22.77;;;;;;;8.00;97.39;102002.78;5049969;28;20626;-79
2022/04/14 05:06:02;;;;;;;129.65;21.60;;;;;;;7.97;98.38;102002.75;5031113;28;20041;-79
2022/04/14 05:08:27;;;;;;;136.02;19.63;;;;;;;7.97;98.25;102002.75;5033344;28;20080;-79
2022/04/14 05:10:53;;;;;;;74.57;17.63;;;;;;;7.94;97.87;102014.19;5031508;28;20045;-79
2022/04/14 05:13:19;;;;;;;56.83;20.33;;;;;;;7.92;98.52;102007.13;5032625;28;20026;-79
2022/04/14 05:15:44;;;;;;;48.70;18.88;;;;;;;7.94;98.39;102013.31;5034038;28;20025;-79
2022/04/14 05:18:10;;;;;;;39.38;18.35;;;;;;;7.96;98.27;102008.91;5032200;28;20485;-79
2022/04/14 05:20:36;;;;;;;45.70;19.58;;;;;;;7.98;98.42;102013.31;5032518;28;20030;-79
2022/04/14 05:23:10;;;;;;;25.00;19.70;;;;;;;7.95;98.72;102009.78;5050267;28;20041;-79
2022/04/14 05:25:36;;;;;;;42.08;20.27;;;;;;;8.00;98.72;102033.56;5052431;28;20511;-79
2022/04/14 05:28:02;;;;;;;25.60;18.70;;;;;;;8.01;98.57;102030.03;5043598;28;20034;-79
2022/04/14 05:30:28;;;;;;;92.93;19.77;;;;;;;8.02;99.40;102037.09;5032362;28;20471;-79
2022/04/14 05:32:53;;;;;;;47.67;20.38;;;;;;;8.00;99.93;102030.91;5034824;28;20485;-79
2022/04/14 05:35:21;;;;;;;105.03;20.60;;;;;;;8.03;99.35;102039.72;5033489;28;20040;-79
2022/04/14 05:37:47;;;;;;;110.63;22.02;;;;;;;8.04;99.89;102038.88;5030651;28;20049;-79
2022/04/14 05:40:13;;;;;;;115.65;21.25;;;;;;;8.06;100.00;102044.13;5030688;28;20048;-79
2022/04/14 05:42:38;;;;;;;89.93;22.63;;;;;;;8.07;100.00;102044.16;5016461;28;20025;-79
2022/04/14 05:45:04;;;;;;;139.90;22.85;;;;;;;8.03;100.00;102052.03;5030262;28;20022;-79
2022/04/14 05:47:30;;;;;;;83.65;21.02;;;;;;;8.01;100.00;102048.50;5033937;28;20128;-79
2022/04/14 05:49:55;;;;;;;128.10;22.83;;;;;;;7.97;100.00;102059.03;5033772;28;20147;-79
2022/04/14 05:52:22;;;;;;;52.42;22.40;;;;;;;7.98;100.00;102049.38;5033359;28;20041;-79
2022/04/14 05:54:48;;;;;;;47.28;22.95;;;;;;;8.01;100.00;102059.06;5032663;28;20045;-79
2022/04/14 05:57:14;;;;;;;42.83;22.55;;;;;;;8.05;100.00;102056.47;5035231;28;20135;-79
2022/04/14 05:59:40;;;;;;;32.45;22.83;;;;;;;8.07;100.00;102051.19;5018571;28;20542;-79
2022/04/14 06:02:07;;;;;;;39.33;22.08;;;;;;;8.16;100.00;102060.06;5030089;28;20040;-79
2022/04/14 06:04:32;;;;;;;23.92;21.10;;;;;;;8.26;100.00;102052.19;5030385;28;20072;-79
2022/04/14 06:06:58;;;;;;;29.80;22.15;;;;;;;8.33;100.00;102054.94;5016672;28;20061;-79
2022/04/14 06:09:24;;;;;;;27.02;22.42;;;;;;;8.39;100.00;102047.06;5013833;28;20108;-79
2022/04/14 06:11:49;;;;;;;27.25;22.80;;;;;;;8.49;100.00;102050.66;5031653;28;20143;-79
2022/04/14 06:14:15;;;;;;;27.95;22.35;;;;;;;8.58;100.00;102061.28;5031447;28;20408;-79
2022/04/14 06:16:40;;;;;;;29.63;22.88;;;;;;;8.65;100.00;102054.25;5031333;28;20032;-79
2022/04/14 06:19:06;;;;;;;31.73;22.83;;;;;;;8.75;100.00;102050.81;4981179;28;20496;-79
2022/04/14 06:21:31;;;;;;;29.67;23.95;;;;;;;8.86;100.00;102049.97;5028334;28;20045;-79
2022/04/14 06:23:57;;;;;;;28.83;23.08;;;;;;;8.96;100.00;102052.66;5018762;28;20117;-79
2022/04/14 06:26:23;;;;;;;26.25;22.00;;;;;;;9.09;100.00;102055.34;5039109;28;20113;-79
2022/04/14 06:28:48;;;;;;;30.95;23.05;;;;;;;9.13;100.00;102052.72;5047361;28;20045;-79
2022/04/14 06:31:14;;;;;;;27.45;21.80;;;;;;;9.27;100.00;102058.03;5039473;28;20045;-79
2022/04/14 06:33:42;;;;;;;30.60;22.95;;;;;;;9.36;100.00;102058.06;5050271;28;20028;-79
2022/04/14 06:36:07;;;;;;;28.02;22.17;;;;;;;9.46;100.00;102062.50;5037012;28;20553;-79
2022/04/14 06:38:33;;;;;;;29.65;21.75;;;;;;;9.59;100.00;102059.88;5014249;28;20196;-79
2022/04/14 06:40:58;;;;;;;25.98;21.85;;;;;;;9.68;100.00;102055.47;5029720;28;20021;-79
2022/04/14 06:43:24;;;;;;;26.98;21.00;;;;;;;9.82;100.00;102059.94;5017356;28;20144;-79
2022/04/14 06:45:51;;;;;;;27.88;21.23;;;;;;;9.94;100.00;102064.31;5030129;28;20103;-79
2022/04/14 06:48:16;;;;;;;29.98;20.25;;;;;;;10.05;99.74;102058.16;5033699;28;20144;-79
2022/04/14 06:50:42;;;;;;;27.92;21.02;;;;;;;10.16;99.41;102058.13;5013141;28;20036;-79
2022/04/14 06:53:07;;;;;;;31.20;21.40;;;;;;;10.26;98.54;102054.63;5030312;28;20042;-80
2022/04/14 06:55:35;;;;;;;28.92;20.05;;;;;;;10.40;98.28;102056.41;5034658;28;20114;-81
2022/04/14 06:58:01;;;;;;;26.30;20.50;;;;;;;10.52;98.29;102059.03;5043572;28;20400;-81
2022/04/14 07:00:28;;;;;;;25.20;20.25;;;;;;;10.61;96.50;102060.75;5049930;28;20044;-81
2022/04/14 07:02:55;;;;;;;25.77;18.75;;;;;;;10.71;96.53;102057.22;5050115;28;20382;-81
2022/04/14 07:05:22;;;;;;;28.25;20.25;;;;;;;10.81;95.43;102064.25;5035108;28;20045;-81
2022/04/14 07:07:48;;;;;;;26.50;19.80;;;;;;;10.91;94.47;102065.09;5033794;28;20037;-81
2022/04/14 07:10:14;;;;;;;27.88;19.67;;;;;;;11.00;94.05;102065.03;5029856;28;20033;-81
2022/04/14 07:12:41;;;;;;;21.40;18.10;;;;;;;11.09;93.43;102064.13;5013577;28;20045;-82
2022/04/14 07:15:07;;;;;;;25.15;17.70;;;;;;;11.16;92.86;102068.53;5013745;28;20029;-81
2022/04/14 07:17:34;;;;;;;26.30;18.88;;;;;;;11.25;93.60;102064.94;5029833;28;20061;-81
2022/04/14 07:20:00;;;;;;;27.75;18.02;;;;;;;11.35;93.99;102075.50;5030951;28;20047;-82
2022/04/14 07:22:25;;;;;;;23.55;18.48;;;;;;;11.45;92.77;102078.97;5044095;28;20060;-82
2022/04/14 07:24:51;;;;;;;26.60;18.42;;;;;;;11.54;91.71;102075.38;5033267;28;20056;-82
2022/04/14 07:27:21;;;;;;;25.23;18.05;;;;;;;11.61;90.75;102070.03;5049903;28;20497;-81
2022/04/14 07:29:47;;;;;;;26.25;17.95;;;;;;;11.71;90.80;102077.94;5040886;28;20112;-82
2022/04/14 07:32:14;;;;;;;25.63;17.98;;;;;;;11.82;90.77;102073.44;5049956;28;20477;-82
2022/04/14 07:34:39;;;;;;;28.58;16.48;;;;;;;11.94;90.41;102083.09;5051227;28;20045;-82
2022/04/14 07:37:05;;;;;;;24.10;16.30;;;;;;;12.02;88.71;102083.94;5049400;28;20033;-82
2022/04/14 07:39:31;;;;;;;22.27;15.68;;;;;;;12.10;88.69;102078.56;5049944;28;20385;-82
2022/04/14 07:41:56;;;;;;;20.35;13.93;;;;;;;12.21;87.87;102079.34;5045189;28;20085;-82
2022/04/14 07:44:22;;;;;;;27.02;15.75;;;;;;;12.33;87.13;102078.34;5017770;28;20075;-82
2022/04/14 07:46:47;;;;;;;21.05;13.77;;;;;;;12.41;86.33;102073.84;5001396;28;20369;-83
2022/04/14 07:49:13;;;;;;;19.27;12.82;;;;;;;12.51;84.48;102086.13;5034123;28;20083;-83
2022/04/14 07:51:40;;;;;;;20.23;13.05;;;;;;;12.60;85.23;102082.50;5034404;28;20037;-83
2022/04/14 07:54:06;;;;;;;18.83;12.93;;;;;;;12.69;84.15;102090.41;5035416;28;20041;-83
2022/04/14 07:56:33;;;;;;;18.42;13.32;;;;;;;12.75;84.10;102087.66;5034233;28;20041;-83
2022/04/14 07:58:59;;;;;;;17.83;12.68;;;;;;;12.84;82.97;102084.91;5033780;28;20042;-83
2022/04/14 08:01:25;;;;;;;19.45;11.90;;;;;;;12.92;82.65;102082.16;5031173;28;20365;-83
2022/04/14 08:03:51;;;;;;;17.58;12.07;;;;;;;12.99;81.91;102094.47;5053039;28;20034;-84
2022/04/14 08:06:16;;;;;;;20.35;12.75;;;;;;;13.05;80.05;102096.16;5020635;28;20037;-84
2022/04/14 08:08:42;;;;;;;18.80;12.93;;;;;;;13.07;80.74;102087.28;5020908;28;20043;-84
2022/04/14 08:11:10;;;;;;;16.70;12.52;;;;;;;13.17;80.56;102090.69;5037144;28;20036;-84
2022/04/14 08:13:38;;;;;;;18.38;12.25;;;;;;;13.26;80.13;102087.06;5020587;28;20120;-85
2022/04/14 08:16:09;;;;;;;26.00;13.63;;;;;;;13.34;80.00;102091.41;5037379;28;20041;-84
2022/04/14 08:18:38;;;;;;;;;;;;;;;13.45;79.58;102091.28;5055546;28;20127;-85
2022/04/14 08:21:05;;;;;;;20.02;12.20;;;;;;;13.52;79.29;102084.94;5051405;28;19952;-85
2022/04/14 08:23:31;;;;;;;17.05;11.48;;;;;;;13.57;78.50;102087.53;5033375;28;20148;-84
2022/04/14 08:25:57;;;;;;;20.48;11.80;;;;;;;13.64;78.78;102085.66;5050627;28;20041;-85
2022/04/14 08:28:23;;;;;;;16.70;12.43;;;;;;;13.74;78.18;102087.28;5054943;28;20045;-86
2022/04/14 08:30:48;;;;;;;16.92;11.18;;;;;;;13.85;76.91;102092.47;5036616;28;20047;-85
2022/04/14 08:33:16;;;;;;;14.77;9.88;;;;;;;13.92;75.81;102092.34;5036542;28;20040;-85
2022/04/14 08:35:53;;;;;;;17.73;11.02;;;;;;;13.97;76.73;102087.81;5054833;28;20462;-85
2022/04/14 08:38:18;;;;;;;17.88;11.48;;;;;;;14.03;75.47;102086.84;5053269;28;20114;-86
2022/04/14 08:40:48;;;;;;;18.15;13.35;;;;;;;14.12;76.21;102085.78;5053510;28;20052;-86
2022/04/14 08:43:17;;;;;;;17.80;12.80;;;;;;;14.20;75.53;102084.78;5053276;28;20077;-86
2022/04/14 08:45:47;;;;;;;19.67;11.93;;;;;;;14.28;74.80;102083.75;5031743;28;20513;-86
2022/04/14 08:48:14;;;;;;;18.45;11.45;;;;;;;14.31;73.95;102089.91;5033438;28;20103;-87
2022/04/14 08:50:41;;;;;;;19.45;11.70;;;;;;;14.36;75.01;102081.81;5016619;28;20052;-87
2022/04/14 08:53:08;;;;;;;20.75;12.20;;;;;;;14.49;74.86;102091.38;5021675;28;20037;-86
2022/04/14 08:55:38;;;;;;;17.67;11.63;;;;;;;14.63;73.26;102092.00;5032558;28;20045;-86
2022/04/14 08:58:04;;;;;;;16.42;10.90;;;;;;;14.76;72.54;102086.44;5016946;28;20025;-87
2022/04/14 09:00:30;;;;;;;13.82;10.23;;;;;;;14.83;72.23;102078.28;5016849;28;20456;-86
2022/04/14 09:02:57;;;;;;;13.57;8.18;;;;;;;14.93;70.07;102087.00;5016304;28;20481;-86
2022/04/14 09:05:23;;;;;;;13.38;9.27;;;;;;;15.02;69.11;102081.47;5032908;28;20045;-86
2022/04/14 09:07:50;;;;;;;16.33;9.90;;;;;;;15.08;69.96;102098.28;5022760;28;20551;-86
2022/04/14 09:10:16;;;;;;;12.38;8.10;;;;;;;15.14;69.29;102096.38;5019408;28;20099;-86
2022/04/14 09:12:42;;;;;;;9.98;7.53;;;;;;;15.24;68.53;102086.38;5052807;28;20109;-86
2022/04/14 09:15:09;;;;;;;11.75;6.63;;;;;;;15.39;68.02;102086.03;5052688;28;20189;-84
2022/04/14 09:17:35;;;;;;;13.20;6.07;;;;;;;15.48;66.05;102077.81;5052395;28;20044;-85
2022/04/14 09:20:31;;;;;;;9.45;5.18;;;;;;;15.53;65.44;102080.41;5036125;28;20044;-88
2022/04/14 09:23:13;;;;;;;9.48;4.60;;;;;;;15.60;64.16;102076.69;5034757;28;20072;-91
2022/04/14 09:25:38;;;;;;;11.77;4.28;;;;;;;15.66;63.16;102076.53;5017035;28;20041;-87
2022/04/14 09:28:12;;;;;;;10.40;4.13;;;;;;;15.77;62.96;102078.97;5015263;28;20045;-84
2022/04/14 09:30:38;;;;;;;7.50;4.30;;;;;;;15.93;62.30;102067.94;5033332;28;20472;-79
2022/04/14 09:33:04;;;;;;;8.85;4.78;;;;;;;16.03;63.28;102061.44;5031701;28;20065;-81
2022/04/14 09:35:31;;;;;;;12.93;4.97;;;;;;;16.12;62.12;102055.84;5031939;28;20069;-82
2022/04/14 09:38:02;;;;;;;10.30;4.60;;;;;;;16.31;61.50;102051.78;5032231;28;20061;-86
2022/04/14 09:40:33;;;;;;;;;;;;;;;16.45;62.11;102050.53;5000320;28;20033;-93
2022/04/14 09:42:59;;;;;;;14.43;4.47;;;;;;;16.51;59.97;102047.69;5016252;28;20434;-86
2022/04/14 09:45:26;;;;;;;8.90;4.22;;;;;;;16.59;59.35;102053.69;5015715;28;20798;-88
2022/04/14 09:47:53;;;;;;;8.50;4.53;;;;;;;16.71;60.19;102044.47;5015235;28;20147;-82
2022/04/14 09:50:26;;;;;;;7.95;3.60;;;;;;;16.71;57.33;102042.66;5031928;28;20040;-86
2022/04/14 09:53:00;;;;;;;7.18;3.97;;;;;;;16.83;57.09;102046.81;5033238;28;20045;-84
2022/04/14 09:55:26;;;;;;;7.80;4.30;;;;;;;16.84;56.29;102042.34;5032009;28;20365;-84
2022/04/14 09:58:18;;;;;;;7.88;3.95;;;;;;;16.92;58.81;102043.88;5031888;28;20048;-83
2022/04/14 10:00:48;;;;;;;9.73;3.75;;;;;;;17.04;55.79;102042.66;5028967;28;20056;-83
2022/04/14 10:03:18;;;;;;;;;;;;;;;17.14;57.56;102040.56;5015543;28;20049;-81
2022/04/14 10:05:45;;;;;;;7.07;2.65;;;;;;;17.24;55.95;102043.84;5051528;28;19915;-82
2022/04/14 10:08:13;;;;;;;8.40;3.67;;;;;;;17.29;54.48;102042.78;5052595;28;20118;-82
2022/04/14 10:10:41;;;;;;;6.72;3.45;;;;;;;17.33;54.39;102038.19;5051271;28;20046;-82
2022/04/14 10:13:11;;;;;;;7.05;3.35;;;;;;;17.51;55.82;102048.34;5052019;28;20538;-79
2022/04/14 10:15:39;;;;;;;5.40;2.90;;;;;;;17.62;53.45;102058.72;5052432;28;20123;-79
2022/04/14 10:18:16;;;;;;;6.28;3.33;;;;;;;17.67;52.45;102062.13;5050127;28;20040;-78
2022/04/14 10:20:46;;;;;;;9.57;3.58;;;;;;;17.75;52.67;102070.78;5050232;28;20033;-81
2022/04/14 10:23:15;;;;;;;9.00;2.97;;;;;;;17.88;54.00;102068.63;5013930;28;20044;-80
2022/04/14 10:25:42;;;;;;;8.25;2.50;;;;;;;17.88;50.97;102070.41;5031805;28;20037;-79
2022/04/14 10:28:17;;;;;;;7.93;2.40;;;;;;;17.98;51.96;102067.38;5031884;28;20407;-80
2022/04/14 10:30:56;;;;;;;6.97;3.38;;;;;;;18.10;51.94;102063.44;5030123;28;20034;-79
2022/04/14 10:33:22;;;;;;;5.05;2.60;;;;;;;18.23;51.23;102069.25;5013888;28;20040;-79
2022/04/14 10:35:52;;;;;;;5.07;2.00;;;;;;;18.39;49.84;102064.22;5013884;28;20041;-79
2022/04/14 10:38:30;;;;;;;6.05;2.47;;;;;;;18.50;50.71;102079.94;5030242;28;20041;-79
2022/04/14 10:41:12;;;;;;;5.88;2.78;;;;;;;18.46;48.88;102079.16;5030292;28;20079;-79
2022/04/14 10:43:41;;;;;;;3.55;1.80;;;;;;;18.45;49.01;102083.66;5029582;28;20504;-79
2022/04/14 10:46:06;;;;;;;5.50;1.92;;;;;;;18.53;47.62;102077.16;5033537;28;20024;-79
2022/04/14 10:48:34;;;;;;;5.95;2.22;;;;;;;18.72;49.04;102071.97;5034692;28;20049;-79
2022/04/14 10:51:28;;;;;;;6.63;2.58;;;;;;;18.87;46.65;102068.78;5029260;28;20401;-79
2022/04/14 10:53:58;;;;;;;6.45;2.30;;;;;;;18.97;47.70;102072.00;5030614;28;20021;-79
2022/04/14 10:56:45;;;;;;;5.97;2.60;;;;;;;19.15;48.74;102065.94;5029665;28;20037;-79
2022/04/14 10:59:41;;;;;;;6.20;2.10;;;;;;;19.29;46.77;102062.72;5028429;28;20088;-79
2022/04/14 11:02:07;;;;;;;3.95;2.63;;;;;;;19.40;46.79;102071.22;5046704;28;20396;-79
2022/04/14 11:04:32;;;;;;;4.80;2.25;;;;;;;19.48;45.65;102070.91;5039033;28;20508;-79
2022/04/14 11:07:01;;;;;;;5.70;2.58;;;;;;;19.51;45.27;102063.63;5033530;28;20033;-79
2022/04/14 11:09:40;;;;;;;7.75;2.35;;;;;;;19.72;46.58;102056.53;5029698;28;20504;-79
2022/04/14 11:12:07;;;;;;;3.97;2.00;;;;;;;19.88;44.48;102067.53;5029433;28;20055;-82
2022/04/14 11:14:37;;;;;;;5.03;2.17;;;;;;;19.91;45.34;102067.41;5030957;28;20080;-79